Time;durP1;ratioP1;P1;durP2;ratioP2;P2;SDS_P1;SDS_P2;PMS_P1;PMS_P2;Temp;Humidity;BMP_temperature;BMP_pressure;BME280_temperature;BME280_humidity;BME280_pressure;Samples;Min_cycle;Max_cycle;Signal;HPM_P1;HPM_P2
2021/12/13 00:01:30;;;;;;;3.05;2.47;;;;;;;;;;5106819;28;20495;-69
2021/12/13 00:03:55;;;;;;;2.75;2.53;;;;;;;;;;5128530;28;20043;-68
2021/12/13 00:06:29;;;;;;;2.55;2.28;;;;;;;;;;5113015;28;20036;-67
2021/12/13 00:08:57;;;;;;;2.28;2.08;;;;;;;;;;5113002;28;20106;-67
2021/12/13 00:11:27;;;;;;;3.28;2.45;;;;;;;;;;5113485;28;20034;-68
2021/12/13 00:13:57;;;;;;;2.00;1.90;;;;;;;;;;5132273;27;20417;-67
2021/12/13 00:16:28;;;;;;;1.77;1.67;;;;;;;;;;5117050;27;20114;-68
2021/12/13 00:18:55;;;;;;;2.30;2.10;;;;;;;;;;5129902;27;20361;-68
2021/12/13 00:21:23;;;;;;;2.67;2.40;;;;;;;;;;5135653;27;20057;-68
2021/12/13 00:23:51;;;;;;;2.20;2.00;;;;;;;;;;5136523;27;20053;-68
2021/12/13 00:26:21;;;;;;;1.95;1.83;;;;;;;;;;5135473;27;20023;-68
2021/12/13 00:28:47;;;;;;;1.63;1.52;;;;;;;;;;5114764;27;20019;-68
2021/12/13 00:31:24;;;;;;;2.40;2.00;;;;;;;;;;5108449;27;20387;-68
2021/12/13 00:34:08;;;;;;;1.92;1.77;;;;;;;;;;5117488;27;20096;-68
2021/12/13 00:36:36;;;;;;;2.10;1.70;;;;;;;;;;5135420;27;20020;-67
2021/12/13 00:39:19;;;;;;;2.17;1.98;;;;;;;;;;5135433;27;20071;-68
2021/12/13 00:41:46;;;;;;;2.28;2.05;;;;;;;;;;5131793;27;20021;-67
2021/12/13 00:44:17;;;;;;;3.33;2.17;;;;;;;;;;5131630;27;20019;-67
2021/12/13 00:46:43;;;;;;;1.70;1.58;;;;;;;;;;5135609;27;20079;-67
2021/12/13 00:49:10;;;;;;;3.17;2.40;;;;;;;;;;5134864;27;20031;-68
2021/12/13 00:51:39;;;;;;;4.70;3.05;;;;;;;;;;5116889;27;20027;-68
2021/12/13 00:54:10;;;;;;;5.32;2.15;;;;;;;;;;5121034;27;20023;-68
2021/12/13 00:56:54;;;;;;;2.22;1.70;;;;;;;;;;5116291;27;20109;-68
2021/12/13 00:59:22;;;;;;;1.73;1.35;;;;;;;;;;5110418;27;20031;-68
2021/12/13 01:01:52;;;;;;;1.90;1.75;;;;;;;;;;5113391;27;20127;-67
2021/12/13 01:04:18;;;;;;;2.00;1.63;;;;;;;;;;5116834;27;20031;-68
2021/12/13 01:07:02;;;;;;;2.42;1.90;;;;;;;;;;5116020;27;20038;-67
2021/12/13 01:09:45;;;;;;;2.50;2.30;;;;;;;;;;5116780;27;20024;-67
2021/12/13 01:12:13;;;;;;;1.90;1.80;;;;;;;;;;5116645;27;20027;-67
2021/12/13 01:14:43;;;;;;;1.63;1.52;;;;;;;;;;5116341;27;20023;-67
2021/12/13 01:17:35;;;;;;;3.08;2.20;;;;;;;;;;5134818;27;20023;-68
2021/12/13 01:20:11;;;;;;;1.50;1.40;;;;;;;;;;5128748;27;20056;-68
2021/12/13 01:22:49;;;;;;;;;;;;;;;;;;5135058;27;20019;-67
2021/12/13 01:25:41;;;;;;;2.60;1.88;;;;;;;;;;5106883;27;19930;-67
2021/12/13 01:28:09;;;;;;;1.80;1.60;;;;;;;;;;5115859;27;20026;-68
2021/12/13 01:30:36;;;;;;;2.20;1.63;;;;;;;;;;5127306;27;20019;-67
2021/12/13 01:33:03;;;;;;;1.80;1.70;;;;;;;;;;5133891;27;20050;-68
2021/12/13 01:35:30;;;;;;;2.30;2.10;;;;;;;;;;5105946;27;20518;-67
2021/12/13 01:38:02;;;;;;;5.18;2.10;;;;;;;;;;5111743;27;20027;-68
2021/12/13 01:40:28;;;;;;;2.72;2.53;;;;;;;;;;5134727;27;20084;-68
2021/12/13 01:43:01;;;;;;;2.42;2.22;;;;;;;;;;5134068;27;20071;-67
2021/12/13 01:45:29;;;;;;;3.67;2.83;;;;;;;;;;5132532;27;20117;-67
2021/12/13 01:47:55;;;;;;;2.72;2.50;;;;;;;;;;5134413;27;20110;-68
2021/12/13 01:50:22;;;;;;;2.38;2.17;;;;;;;;;;5134276;27;20042;-67
2021/12/13 01:52:49;;;;;;;3.35;3.05;;;;;;;;;;5114805;27;20071;-67
2021/12/13 01:55:17;;;;;;;3.55;3.25;;;;;;;;;;5115573;27;20027;-67
2021/12/13 01:57:54;;;;;;;4.25;2.75;;;;;;;;;;5133730;27;20092;-67
2021/12/13 02:00:43;;;;;;;2.67;2.47;;;;;;;;;;5111225;27;20019;-68
2021/12/13 02:03:11;;;;;;;3.85;3.53;;;;;;;;;;5130938;27;20483;-68
2021/12/13 02:05:36;;;;;;;3.60;3.30;;;;;;;;;;5126313;27;20043;-67
2021/12/13 02:08:07;;;;;;;3.70;3.40;;;;;;;;;;5098114;27;20035;-67
2021/12/13 02:10:39;;;;;;;4.45;3.97;;;;;;;;;;5133507;27;20027;-67
2021/12/13 02:13:10;;;;;;;3.42;3.10;;;;;;;;;;5115449;27;20103;-68
2021/12/13 02:18:25;;;;;;;4.40;3.80;;;;;;;;;;5128979;27;20042;-68
2021/12/13 02:21:01;;;;;;;3.63;3.17;;;;;;;;;;5134094;27;20019;-67
2021/12/13 02:23:27;;;;;;;4.18;3.72;;;;;;;;;;5131079;27;20102;-67
2021/12/13 02:25:55;;;;;;;4.80;3.92;;;;;;;;;;5132835;27;20109;-67
2021/12/13 02:28:22;;;;;;;5.05;3.95;;;;;;;;;;5098118;27;20121;-68
2021/12/13 02:30:49;;;;;;;5.18;4.28;;;;;;;;;;5128860;27;20462;-68
2021/12/13 02:33:17;;;;;;;7.88;4.45;;;;;;;;;;5114558;27;20031;-68
2021/12/13 02:35:49;;;;;;;4.38;3.90;;;;;;;;;;5133052;27;20027;-68
2021/12/13 02:38:15;;;;;;;4.40;3.70;;;;;;;;;;5131826;27;20106;-68
2021/12/13 02:40:41;;;;;;;5.60;4.00;;;;;;;;;;5115095;27;20027;-67
2021/12/13 02:43:07;;;;;;;3.80;3.38;;;;;;;;;;5114978;27;20080;-68
2021/12/13 02:45:42;;;;;;;4.55;4.15;;;;;;;;;;5133000;27;20076;-68
2021/12/13 02:48:10;;;;;;;4.55;3.78;;;;;;;;;;5111233;28;20031;-68
2021/12/13 02:50:44;;;;;;;4.55;4.07;;;;;;;;;;5127259;27;20023;-68
2021/12/13 02:53:10;;;;;;;6.22;4.13;;;;;;;;;;5114119;27;20506;-68
2021/12/13 02:55:36;;;;;;;5.78;4.20;;;;;;;;;;5114587;27;20031;-68
2021/12/13 02:58:03;;;;;;;6.60;4.38;;;;;;;;;;5114117;27;20103;-68
2021/12/13 03:00:48;;;;;;;5.57;4.88;;;;;;;;;;5129026;27;20087;-68
2021/12/13 03:03:15;;;;;;;5.28;4.30;;;;;;;;;;5110447;27;20097;-68
2021/12/13 03:05:42;;;;;;;5.65;4.45;;;;;;;;;;5132892;27;20027;-67
2021/12/13 03:08:16;;;;;;;5.85;4.53;;;;;;;;;;5113277;27;20116;-68
2021/12/13 03:10:47;;;;;;;6.10;4.65;;;;;;;;;;5114479;27;20394;-68
2021/12/13 03:13:12;;;;;;;5.97;4.57;;;;;;;;;;5110049;27;20023;-67
2021/12/13 03:15:37;;;;;;;8.75;5.35;;;;;;;;;;5114475;27;20635;-67
2021/12/13 03:18:15;;;;;;;7.35;5.07;;;;;;;;;;5129349;27;20435;-67
2021/12/13 03:20:49;;;;;;;8.05;4.80;;;;;;;;;;5105992;27;20052;-67
2021/12/13 03:23:21;;;;;;;5.68;5.07;;;;;;;;;;5122957;27;20022;-67
2021/12/13 03:26:02;;;;;;;7.05;4.80;;;;;;;;;;5132767;27;20035;-67
2021/12/13 03:28:46;;;;;;;9.25;6.13;;;;;;;;;;5112908;27;20016;-67
2021/12/13 03:31:13;;;;;;;9.77;6.50;;;;;;;;;;5127230;27;20019;-68
2021/12/13 03:33:47;;;;;;;12.45;6.88;;;;;;;;;;5132037;27;20101;-68
2021/12/13 03:36:14;;;;;;;11.40;6.47;;;;;;;;;;5132410;27;20026;-68
2021/12/13 03:38:41;;;;;;;9.02;5.40;;;;;;;;;;5131074;27;20459;-68
2021/12/13 03:41:20;;;;;;;8.57;5.45;;;;;;;;;;5111799;28;20480;-67
2021/12/13 03:43:48;;;;;;;10.32;5.88;;;;;;;;;;5131823;27;20023;-68
2021/12/13 03:46:14;;;;;;;8.63;6.03;;;;;;;;;;5113541;27;20023;-66
2021/12/13 03:48:42;;;;;;;11.15;6.85;;;;;;;;;;5132009;27;20152;-68
2021/12/13 03:51:09;;;;;;;14.55;6.95;;;;;;;;;;5113671;28;20023;-67
2021/12/13 03:53:35;;;;;;;15.02;7.30;;;;;;;;;;5113368;28;20027;-68
2021/12/13 03:56:04;;;;;;;13.63;7.25;;;;;;;;;;5113603;28;20027;-68
2021/12/13 03:58:35;;;;;;;14.27;7.22;;;;;;;;;;5113245;28;20019;-68
2021/12/13 04:01:08;;;;;;;11.68;6.65;;;;;;;;;;5124896;28;20012;-68
2021/12/13 04:03:34;;;;;;;13.02;7.03;;;;;;;;;;5111771;28;20050;-68
2021/12/13 04:05:59;;;;;;;17.60;7.22;;;;;;;;;;5103900;28;20106;-68
2021/12/13 04:08:24;;;;;;;12.07;6.90;;;;;;;;;;5128450;28;20061;-68
2021/12/13 04:10:52;;;;;;;10.02;5.97;;;;;;;;;;5113371;28;20174;-68
2021/12/13 04:13:20;;;;;;;11.18;5.72;;;;;;;;;;5113486;28;20027;-68
2021/12/13 04:16:11;;;;;;;9.80;5.25;;;;;;;;;;5132144;28;20410;-69
2021/12/13 04:21:13;;;;;;;8.73;5.47;;;;;;;;;;5131492;28;20011;-69
2021/12/13 04:23:39;;;;;;;10.20;5.50;;;;;;;;;;5113022;28;20019;-69
2021/12/13 04:26:06;;;;;;;9.73;5.40;;;;;;;;;;5113175;28;20038;-68
2021/12/13 04:28:35;;;;;;;9.15;5.35;;;;;;;;;;5113098;28;20019;-66
2021/12/13 04:31:03;;;;;;;11.00;5.38;;;;;;;;;;5128694;27;20041;-67
2021/12/13 04:33:28;;;;;;;15.35;6.53;;;;;;;;;;5112246;28;20027;-67
2021/12/13 04:35:56;;;;;;;13.13;6.22;;;;;;;;;;5131694;28;20019;-67
2021/12/13 04:38:25;;;;;;;7.78;5.03;;;;;;;;;;5131028;28;20472;-68
2021/12/13 04:40:50;;;;;;;7.88;4.80;;;;;;;;;;5113360;28;20102;-68
2021/12/13 04:43:17;;;;;;;9.30;5.43;;;;;;;;;;5096040;28;20115;-67
2021/12/13 04:45:44;;;;;;;9.38;5.50;;;;;;;;;;5131846;28;20026;-68
2021/12/13 04:48:12;;;;;;;9.55;5.47;;;;;;;;;;5112916;28;20502;-68
2021/12/13 04:50:37;;;;;;;11.88;5.93;;;;;;;;;;5131405;28;20027;-68
2021/12/13 04:53:02;;;;;;;8.63;4.88;;;;;;;;;;5112488;28;20438;-68
2021/12/13 04:55:29;;;;;;;10.43;5.20;;;;;;;;;;5113325;28;20030;-67
2021/12/13 04:57:56;;;;;;;7.45;4.07;;;;;;;;;;5130892;28;20023;-68
2021/12/13 05:00:23;;;;;;;7.95;4.20;;;;;;;;;;5104103;28;20016;-68
2021/12/13 05:02:50;;;;;;;7.50;3.92;;;;;;;;;;5115952;27;20043;-68
2021/12/13 05:05:17;;;;;;;7.72;4.63;;;;;;;;;;5132847;27;20034;-68
2021/12/13 05:07:43;;;;;;;10.48;4.45;;;;;;;;;;5106889;27;20026;-68
2021/12/13 05:10:09;;;;;;;8.75;4.35;;;;;;;;;;5135445;27;20023;-68
2021/12/13 05:12:34;;;;;;;8.98;4.68;;;;;;;;;;5134883;27;20046;-68
2021/12/13 05:15:02;;;;;;;15.60;4.50;;;;;;;;;;5133034;27;20767;-69
2021/12/13 05:17:32;;;;;;;8.40;4.00;;;;;;;;;;5124460;27;20050;-68
2021/12/13 05:20:08;;;;;;;8.13;4.53;;;;;;;;;;5134526;27;20019;-68
2021/12/13 05:22:38;;;;;;;8.95;4.38;;;;;;;;;;5116282;27;20022;-69
2021/12/13 05:25:04;;;;;;;11.85;5.53;;;;;;;;;;5134745;27;20031;-68
2021/12/13 05:27:32;;;;;;;11.18;5.15;;;;;;;;;;5130717;27;20103;-66
2021/12/13 05:30:15;;;;;;;13.88;5.93;;;;;;;;;;5108598;27;20068;-67
2021/12/13 05:32:43;;;;;;;12.02;5.68;;;;;;;;;;5131029;27;20058;-67
2021/12/13 05:35:17;;;;;;;14.20;6.38;;;;;;;;;;5116546;27;20027;-67
2021/12/13 05:37:45;;;;;;;8.60;5.28;;;;;;;;;;5115211;27;20102;-67
2021/12/13 05:40:12;;;;;;;14.77;6.35;;;;;;;;;;5111753;27;20174;-67
2021/12/13 05:42:39;;;;;;;13.70;7.05;;;;;;;;;;5123854;27;20494;-67
2021/12/13 05:45:07;;;;;;;14.18;7.03;;;;;;;;;;5109123;27;20024;-67
2021/12/13 05:47:33;;;;;;;10.50;5.63;;;;;;;;;;5111253;27;20026;-68
2021/12/13 05:49:58;;;;;;;13.85;6.05;;;;;;;;;;5114862;27;20019;-67
2021/12/13 05:52:30;;;;;;;14.02;6.38;;;;;;;;;;5096664;27;20395;-67
2021/12/13 05:54:58;;;;;;;13.05;6.68;;;;;;;;;;5132055;27;20023;-68
2021/12/13 05:57:27;;;;;;;15.05;6.55;;;;;;;;;;5113572;27;20027;-68
2021/12/13 06:00:19;;;;;;;13.88;6.65;;;;;;;;;;5106473;28;20019;-68
2021/12/13 06:03:03;;;;;;;11.82;5.82;;;;;;;;;;5111278;27;20164;-68
2021/12/13 06:05:40;;;;;;;11.95;6.28;;;;;;;;;;5112544;27;20027;-68
2021/12/13 06:08:08;;;;;;;16.45;6.85;;;;;;;;;;5110670;27;20487;-68
2021/12/13 06:10:50;;;;;;;12.85;6.75;;;;;;;;;;5112518;27;20083;-68
2021/12/13 06:13:34;;;;;;;11.15;5.60;;;;;;;;;;5124226;27;20023;-68
2021/12/13 06:15:59;;;;;;;12.88;5.97;;;;;;;;;;5114587;27;20050;-68
2021/12/13 06:18:29;;;;;;;12.52;6.30;;;;;;;;;;5098699;27;20483;-68
2021/12/13 06:20:58;;;;;;;9.68;5.40;;;;;;;;;;5114527;27;20109;-68
2021/12/13 06:23:25;;;;;;;11.90;6.22;;;;;;;;;;5113751;27;20023;-68
2021/12/13 06:25:56;;;;;;;12.48;6.45;;;;;;;;;;5112478;27;20034;-69
2021/12/13 06:28:23;;;;;;;9.55;6.13;;;;;;;;;;5129417;27;20080;-69
2021/12/13 06:31:05;;;;;;;13.35;6.35;;;;;;;;;;5120889;27;20082;-69
2021/12/13 06:33:48;;;;;;;15.30;6.47;;;;;;;;;;5125396;27;20019;-68
2021/12/13 06:36:14;;;;;;;16.42;7.53;;;;;;;;;;5124519;27;20801;-69
2021/12/13 06:38:52;;;;;;;15.80;6.97;;;;;;;;;;5124838;27;20514;-69
2021/12/13 06:41:29;;;;;;;21.33;11.63;;;;;;;;;;5128297;27;20441;-69
2021/12/13 06:43:54;;;;;;;21.45;10.38;;;;;;;;;;5109519;27;20021;-68
2021/12/13 06:46:23;;;;;;;18.17;8.27;;;;;;;;;;5108795;27;20031;-68
2021/12/13 06:48:59;;;;;;;17.15;8.02;;;;;;;;;;5128909;27;20451;-68
2021/12/13 06:51:39;;;;;;;13.23;8.45;;;;;;;;;;5109381;27;20027;-67
2021/12/13 06:54:09;;;;;;;17.95;9.00;;;;;;;;;;5117621;27;20547;-67
2021/12/13 06:56:35;;;;;;;14.98;7.60;;;;;;;;;;5121864;27;20490;-67
2021/12/13 06:59:03;;;;;;;14.45;7.40;;;;;;;;;;5124080;27;20036;-67
2021/12/13 07:01:29;;;;;;;14.55;8.18;;;;;;;;;;5123584;27;20109;-67
2021/12/13 07:04:00;;;;;;;19.25;11.50;;;;;;;;;;5123728;27;20047;-67
2021/12/13 07:06:26;;;;;;;14.35;8.45;;;;;;;;;;5124804;27;20023;-67
2021/12/13 07:09:03;;;;;;;11.32;7.00;;;;;;;;;;5107219;27;20387;-67
2021/12/13 07:11:38;;;;;;;14.82;8.10;;;;;;;;;;5124617;27;20114;-68
2021/12/13 07:14:06;;;;;;;11.07;7.30;;;;;;;;;;5124306;27;20046;-67
2021/12/13 07:16:36;;;;;;;14.18;7.80;;;;;;;;;;5125366;27;20027;-67
2021/12/13 07:19:11;;;;;;;15.32;7.68;;;;;;;;;;5125328;27;20476;-67
2021/12/13 07:21:46;;;;;;;12.95;7.07;;;;;;;;;;5129849;27;20024;-68
2021/12/13 07:24:13;;;;;;;13.18;7.07;;;;;;;;;;5105003;27;20019;-67
2021/12/13 07:26:38;;;;;;;14.82;7.55;;;;;;;;;;5104344;27;20026;-67
2021/12/13 07:29:17;;;;;;;13.38;7.20;;;;;;;;;;5119260;27;20553;-68
2021/12/13 07:31:44;;;;;;;11.27;6.93;;;;;;;;;;5105950;27;20127;-69
2021/12/13 07:34:11;;;;;;;11.85;6.90;;;;;;;;;;5122409;27;20508;-69
2021/12/13 07:36:37;;;;;;;13.88;7.90;;;;;;;;;;5106492;27;20327;-68
2021/12/13 07:39:08;;;;;;;13.75;7.65;;;;;;;;;;5128570;27;20019;-68
2021/12/13 07:41:51;;;;;;;14.27;7.35;;;;;;;;;;5130984;27;20098;-68
2021/12/13 07:44:40;;;;;;;9.10;6.18;;;;;;;;;;5120494;27;20110;-67
2021/12/13 07:47:08;;;;;;;12.00;6.78;;;;;;;;;;5106872;28;22233;-66
2021/12/13 07:49:35;;;;;;;13.45;7.53;;;;;;;;;;5125174;27;20272;-66
2021/12/13 07:52:02;;;;;;;11.18;6.57;;;;;;;;;;5123422;27;20027;-67
2021/12/13 07:54:28;;;;;;;12.18;6.57;;;;;;;;;;5128073;28;20554;-65
2021/12/13 07:56:57;;;;;;;7.43;5.25;;;;;;;;;;5130185;28;20122;-68
2021/12/13 07:59:22;;;;;;;8.68;5.97;;;;;;;;;;5124816;27;20062;-68
2021/12/13 08:01:50;;;;;;;9.10;5.93;;;;;;;;;;5108417;28;20074;-68
2021/12/13 08:04:19;;;;;;;9.82;7.05;;;;;;;;;;5119407;28;20079;-68
2021/12/13 08:06:49;;;;;;;9.40;6.53;;;;;;;;;;5111768;28;20475;-68
2021/12/13 08:09:19;;;;;;;9.45;5.93;;;;;;;;;;5126890;28;20027;-68
2021/12/13 08:11:45;;;;;;;12.52;7.80;;;;;;;;;;5108559;28;20015;-68
2021/12/13 08:14:11;;;;;;;13.50;8.85;;;;;;;;;;5111448;28;20153;-68
2021/12/13 08:16:38;;;;;;;13.35;8.25;;;;;;;;;;5130378;27;20478;-68
2021/12/13 08:19:30;;;;;;;15.55;9.00;;;;;;;;;;5112800;28;20025;-68
2021/12/13 08:21:59;;;;;;;12.15;8.50;;;;;;;;;;5124232;28;20459;-68
2021/12/13 08:24:26;;;;;;;13.57;8.55;;;;;;;;;;5132086;28;20033;-68
2021/12/13 08:26:58;;;;;;;17.00;10.00;;;;;;;;;;5112272;28;20018;-67
2021/12/13 08:29:27;;;;;;;14.30;8.93;;;;;;;;;;5108192;28;20117;-67
2021/12/13 08:31:54;;;;;;;16.70;10.43;;;;;;;;;;5126886;28;20421;-67
2021/12/13 08:34:27;;;;;;;18.00;10.27;;;;;;;;;;5129658;28;20080;-66
2021/12/13 08:36:52;;;;;;;16.77;10.43;;;;;;;;;;5117080;27;20034;-67
2021/12/13 08:39:34;;;;;;;19.83;12.55;;;;;;;;;;5124730;27;20015;-67
2021/12/13 08:42:09;;;;;;;23.52;11.73;;;;;;;;;;5114522;27;20558;-67
2021/12/13 08:44:38;;;;;;;15.00;9.82;;;;;;;;;;5118247;27;20019;-67
2021/12/13 08:47:03;;;;;;;14.00;8.73;;;;;;;;;;5116241;27;20748;-67
2021/12/13 08:49:34;;;;;;;11.50;7.25;;;;;;;;;;5128676;27;20015;-67
2021/12/13 08:52:08;;;;;;;13.75;8.20;;;;;;;;;;5116441;27;20088;-66
2021/12/13 08:54:52;;;;;;;12.63;8.00;;;;;;;;;;5115370;27;20027;-67
2021/12/13 08:57:33;;;;;;;9.57;7.18;;;;;;;;;;5116242;27;20023;-66
2021/12/13 09:00:00;;;;;;;10.10;7.28;;;;;;;;;;5125736;27;20011;-67
2021/12/13 09:02:26;;;;;;;13.30;8.65;;;;;;;;;;5133107;27;20130;-66
2021/12/13 09:04:54;;;;;;;10.73;6.93;;;;;;;;;;5110911;28;20023;-66
2021/12/13 09:07:21;;;;;;;8.60;6.80;;;;;;;;;;5130151;27;20475;-66
2021/12/13 09:09:46;;;;;;;9.38;6.45;;;;;;;;;;5134793;27;20102;-66
2021/12/13 09:12:14;;;;;;;10.57;6.88;;;;;;;;;;5133950;27;20539;-66
2021/12/13 09:14:43;;;;;;;9.75;6.45;;;;;;;;;;5133284;27;20029;-66
2021/12/13 09:17:16;;;;;;;8.30;5.38;;;;;;;;;;5128889;27;20015;-66
2021/12/13 09:19:44;;;;;;;9.02;6.18;;;;;;;;;;5116444;27;20072;-66
2021/12/13 09:22:28;;;;;;;9.88;6.47;;;;;;;;;;5114961;27;20015;-66
2021/12/13 09:25:06;;;;;;;7.68;6.03;;;;;;;;;;5115758;27;20297;-67
2021/12/13 09:27:57;;;;;;;9.50;6.30;;;;;;;;;;5115922;27;20027;-66
2021/12/13 09:30:33;;;;;;;12.10;6.80;;;;;;;;;;5125009;27;20051;-67
2021/12/13 09:32:58;;;;;;;9.65;6.82;;;;;;;;;;5132766;27;20110;-66
2021/12/13 09:35:26;;;;;;;11.57;7.65;;;;;;;;;;5113750;27;20456;-67
2021/12/13 09:37:52;;;;;;;9.88;7.38;;;;;;;;;;5113107;27;20110;-67
2021/12/13 09:40:19;;;;;;;10.30;7.70;;;;;;;;;;5102656;27;20129;-66
2021/12/13 09:42:46;;;;;;;12.00;7.70;;;;;;;;;;5125520;27;20042;-66
2021/12/13 09:45:12;;;;;;;11.20;7.53;;;;;;;;;;5124380;27;20488;-66
2021/12/13 09:47:39;;;;;;;10.45;7.32;;;;;;;;;;5106760;27;20047;-66
2021/12/13 09:50:10;;;;;;;8.15;6.80;;;;;;;;;;5107855;27;20049;-65
2021/12/13 09:52:42;;;;;;;9.30;6.93;;;;;;;;;;5106525;27;20020;-65
2021/12/13 09:55:13;;;;;;;8.95;6.65;;;;;;;;;;5107412;27;20103;-66
2021/12/13 09:57:58;;;;;;;9.05;6.90;;;;;;;;;;5128731;27;20117;-66
2021/12/13 10:00:26;;;;;;;11.73;7.82;;;;;;;;;;5119677;27;20125;-66
2021/12/13 10:02:54;;;;;;;9.38;6.35;;;;;;;;;;5123288;27;20027;-65
2021/12/13 10:05:26;;;;;;;10.57;7.45;;;;;;;;;;5130212;27;20011;-66
2021/12/13 10:08:05;;;;;;;16.52;8.52;;;;;;;;;;5108378;27;20493;-65
2021/12/13 10:37:37;;;;;;;9.57;6.90;;;;;;;;;;5488776;23;20083;-70
2021/12/13 10:40:10;;;;;;;9.13;7.53;;;;;;;;;;5022202;28;20100;-69
2021/12/13 10:42:37;;;;;;;14.10;8.18;;;;;;;;;;5028593;28;20029;-68
2021/12/13 10:45:06;;;;;;;8.07;6.05;;;;;;;;;;5023129;28;20197;-68
2021/12/13 10:47:37;;;;;;;10.90;7.38;;;;;;;;;;5017674;28;20025;-70
2021/12/13 10:50:04;;;;;;;11.80;7.50;;;;;;;;;;5029811;28;20025;-68
2021/12/13 10:52:34;;;;;;;8.95;6.70;;;;;;;;;;5015061;28;20040;-72
2021/12/13 10:55:05;;;;;;;9.25;6.65;;;;;;;;;;5025002;28;20490;-68
2021/12/13 10:57:32;;;;;;;8.35;6.07;;;;;;;;;;5022763;28;20230;-73
2021/12/13 10:59:59;;;;;;;9.50;6.43;;;;;;;;;;5007427;28;20546;-66
2021/12/13 11:02:27;;;;;;;9.25;6.40;;;;;;;;;;5029528;28;20032;-65
2021/12/13 11:04:55;;;;;;;8.02;6.57;;;;;;;;;;5010907;28;20367;-67
2021/12/13 11:07:21;;;;;;;8.85;6.35;;;;;;;;;;5030155;28;20504;-69
2021/12/13 11:09:46;;;;;;;9.73;6.60;;;;;;;;;;4986453;28;20026;-68
2021/12/13 11:12:17;;;;;;;7.30;5.30;;;;;;;;;;5020321;28;20476;-69
2021/12/13 11:14:44;;;;;;;9.00;6.22;;;;;;;;;;5022768;28;20030;-68
2021/12/13 11:17:13;;;;;;;7.05;5.35;;;;;;;;;;5031577;28;20029;-69
2021/12/13 11:19:39;;;;;;;7.93;5.13;;;;;;;;;;5026561;28;20518;-68
2021/12/13 11:22:07;;;;;;;7.90;5.43;;;;;;;;;;5029508;28;20470;-68
2021/12/13 11:24:33;;;;;;;8.85;5.65;;;;;;;;;;5011035;28;20036;-68
2021/12/13 11:27:01;;;;;;;7.32;5.40;;;;;;;;;;5013881;28;20025;-68
2021/12/13 11:29:28;;;;;;;8.13;5.50;;;;;;;;;;5003863;28;20025;-67
2021/12/13 11:31:53;;;;;;;8.07;5.97;;;;;;;;;;5023336;28;20033;-68
2021/12/13 11:34:27;;;;;;;7.45;4.85;;;;;;;;;;5017296;28;20389;-67
2021/12/13 11:37:18;;;;;;;9.47;5.70;;;;;;;;;;5005791;28;20087;-67
2021/12/13 11:40:02;;;;;;;7.82;4.80;;;;;;;;;;5019954;28;20018;-66
2021/12/13 11:42:46;;;;;;;8.07;5.50;;;;;;;;;;5020192;28;20394;-67
2021/12/13 11:45:25;;;;;;;9.05;6.05;;;;;;;;;;5023662;28;20017;-67
2021/12/13 11:48:09;;;;;;;8.77;6.20;;;;;;;;;;5022717;28;20064;-68
2021/12/13 11:50:40;;;;;;;8.80;5.95;;;;;;;;;;5023494;28;20029;-68
2021/12/13 11:53:24;;;;;;;10.60;6.38;;;;;;;;;;5027142;28;20120;-68
2021/12/13 11:55:59;;;;;;;8.27;6.15;;;;;;;;;;5021461;28;20127;-67
2021/12/13 11:58:43;;;;;;;10.75;6.95;;;;;;;;;;5005473;28;20814;-68
2021/12/13 12:01:26;;;;;;;12.13;7.38;;;;;;;;;;5024820;28;20030;-68
2021/12/13 12:04:06;;;;;;;11.63;7.28;;;;;;;;;;5021484;28;20010;-69
2021/12/13 12:06:58;;;;;;;14.45;7.90;;;;;;;;;;5018681;28;20112;-68
2021/12/13 12:09:42;;;;;;;12.48;8.00;;;;;;;;;;5015782;28;20034;-68
2021/12/13 12:12:20;;;;;;;14.48;8.60;;;;;;;;;;5007762;28;20033;-68
2021/12/13 12:14:49;;;;;;;16.67;9.73;;;;;;;;;;5026303;28;20112;-67
2021/12/13 12:17:15;;;;;;;12.35;8.65;;;;;;;;;;5024124;28;20041;-67
2021/12/13 12:19:41;;;;;;;13.25;8.43;;;;;;;;;;5025556;28;20175;-68
2021/12/13 12:22:15;;;;;;;11.40;7.47;;;;;;;;;;5023706;28;20430;-67
2021/12/13 12:24:46;;;;;;;12.02;7.22;;;;;;;;;;5009733;28;20036;-68
2021/12/13 12:27:15;;;;;;;10.93;6.90;;;;;;;;;;5010981;28;20083;-68
2021/12/13 12:29:42;;;;;;;13.05;7.65;;;;;;;;;;5015020;28;20026;-68
2021/12/13 12:32:07;;;;;;;14.05;8.45;;;;;;;;;;5013872;28;20025;-68
2021/12/13 12:34:34;;;;;;;13.13;7.57;;;;;;;;;;5027115;28;20018;-67
2021/12/13 12:36:59;;;;;;;11.48;7.15;;;;;;;;;;5018701;28;20042;-69
2021/12/13 12:39:42;;;;;;;13.50;7.93;;;;;;;;;;5023224;28;20508;-68
2021/12/13 12:42:20;;;;;;;15.25;8.52;;;;;;;;;;5030734;28;20029;-69
2021/12/13 12:44:58;;;;;;;15.65;8.43;;;;;;;;;;5006067;28;20041;-68
2021/12/13 12:47:36;;;;;;;14.70;8.68;;;;;;;;;;5010844;28;20416;-68
2021/12/13 12:50:16;;;;;;;16.65;9.48;;;;;;;;;;5029898;28;20136;-69
2021/12/13 12:52:52;;;;;;;13.85;8.80;;;;;;;;;;5015458;28;20021;-68
2021/12/13 12:55:19;;;;;;;18.45;9.98;;;;;;;;;;5024892;28;20036;-67
2021/12/13 12:57:44;;;;;;;18.60;9.43;;;;;;;;;;5015970;28;20021;-67
2021/12/13 13:00:10;;;;;;;20.75;11.15;;;;;;;;;;4998208;28;20430;-68
2021/12/13 13:02:35;;;;;;;22.10;10.82;;;;;;;;;;5013307;28;20025;-67
2021/12/13 13:05:05;;;;;;;18.70;10.98;;;;;;;;;;5029884;28;20025;-68
2021/12/13 13:07:32;;;;;;;20.38;10.73;;;;;;;;;;5030563;28;20029;-68
2021/12/13 13:09:59;;;;;;;18.52;10.85;;;;;;;;;;5021936;28;20058;-68
2021/12/13 13:12:27;;;;;;;17.42;11.38;;;;;;;;;;5007687;28;20017;-69
2021/12/13 13:14:59;;;;;;;16.95;10.02;;;;;;;;;;5033955;28;20020;-69
2021/12/13 13:17:26;;;;;;;17.98;10.50;;;;;;;;;;5022032;28;20144;-68
2021/12/13 13:19:53;;;;;;;18.15;10.18;;;;;;;;;;5043267;28;20049;-68
2021/12/13 13:22:21;;;;;;;19.27;10.80;;;;;;;;;;5014333;28;20078;-67
2021/12/13 13:24:50;;;;;;;20.33;11.02;;;;;;;;;;5032606;28;20482;-68
2021/12/13 13:27:16;;;;;;;22.25;11.05;;;;;;;;;;5016074;28;20025;-67
2021/12/13 13:29:41;;;;;;;22.55;11.10;;;;;;;;;;5014923;28;20017;-68
2021/12/13 13:32:09;;;;;;;24.42;12.63;;;;;;;;;;5015578;28;20030;-68
2021/12/13 13:34:36;;;;;;;20.20;11.63;;;;;;;;;;5028127;28;20025;-68
2021/12/13 13:37:06;;;;;;;22.30;12.52;;;;;;;;;;5033213;28;20046;-67
2021/12/13 13:39:45;;;;;;;21.65;12.20;;;;;;;;;;5036171;28;20071;-68
2021/12/13 13:42:10;;;;;;;23.58;13.00;;;;;;;;;;5046210;28;20436;-67
2021/12/13 13:44:41;;;;;;;20.52;11.50;;;;;;;;;;5038885;28;20462;-68
2021/12/13 13:47:09;;;;;;;23.75;12.43;;;;;;;;;;5032633;28;20033;-67
2021/12/13 13:49:35;;;;;;;25.50;13.75;;;;;;;;;;5037755;28;20021;-68
2021/12/13 13:52:16;;;;;;;27.00;14.43;;;;;;;;;;5018988;28;20083;-68
2021/12/13 13:54:41;;;;;;;32.45;15.45;;;;;;;;;;5032735;28;20026;-67
2021/12/13 13:57:14;;;;;;;24.95;14.95;;;;;;;;;;5032381;28;20363;-69
2021/12/13 13:59:41;;;;;;;29.27;14.98;;;;;;;;;;5033049;28;20102;-68
2021/12/13 14:02:07;;;;;;;27.23;15.27;;;;;;;;;;5014378;28;20071;-68
2021/12/13 14:04:34;;;;;;;24.15;13.73;;;;;;;;;;5032221;28;20045;-68
2021/12/13 14:07:06;;;;;;;24.08;13.45;;;;;;;;;;5032207;28;20033;-68
2021/12/13 14:09:36;;;;;;;27.05;13.38;;;;;;;;;;5026116;28;20087;-68
2021/12/13 14:12:06;;;;;;;26.67;13.93;;;;;;;;;;5031594;28;20371;-68
2021/12/13 14:14:45;;;;;;;28.10;15.00;;;;;;;;;;5006600;28;20021;-68
2021/12/13 14:17:11;;;;;;;23.58;13.50;;;;;;;;;;5031828;28;20095;-67
2021/12/13 14:19:38;;;;;;;25.30;13.82;;;;;;;;;;5014949;28;20029;-68
2021/12/13 14:22:05;;;;;;;25.58;13.70;;;;;;;;;;5031672;28;20112;-68
2021/12/13 14:24:32;;;;;;;32.28;14.48;;;;;;;;;;5033722;28;20025;-67
2021/12/13 14:27:11;;;;;;;26.77;13.60;;;;;;;;;;5033253;28;20036;-68
2021/12/13 14:29:36;;;;;;;25.42;13.38;;;;;;;;;;5039145;28;20029;-68
2021/12/13 14:32:07;;;;;;;26.77;13.48;;;;;;;;;;5030783;28;20124;-68
2021/12/13 14:34:34;;;;;;;21.88;12.82;;;;;;;;;;5030726;28;20018;-68
2021/12/13 14:37:01;;;;;;;29.50;14.23;;;;;;;;;;5013697;28;20569;-67
2021/12/13 14:39:28;;;;;;;25.67;12.77;;;;;;;;;;5016197;28;20018;-67
2021/12/13 14:41:59;;;;;;;20.88;12.45;;;;;;;;;;5032467;28;20137;-67
2021/12/13 14:44:26;;;;;;;21.00;11.07;;;;;;;;;;5031069;28;20029;-67
2021/12/13 14:46:53;;;;;;;21.98;12.02;;;;;;;;;;5031468;28;20039;-67
2021/12/13 14:49:26;;;;;;;28.27;13.57;;;;;;;;;;5032132;28;20466;-68
2021/12/13 14:52:05;;;;;;;22.77;12.55;;;;;;;;;;5031894;28;20037;-67
2021/12/13 14:54:31;;;;;;;22.67;12.57;;;;;;;;;;5031749;28;20063;-69
2021/12/13 14:56:59;;;;;;;18.95;10.65;;;;;;;;;;5031678;28;20058;-69
2021/12/13 14:59:24;;;;;;;24.17;11.95;;;;;;;;;;5028906;28;20130;-68
2021/12/13 15:01:50;;;;;;;18.50;10.27;;;;;;;;;;5005242;28;20541;-68
2021/12/13 15:04:24;;;;;;;16.77;10.98;;;;;;;;;;5013929;28;20447;-68
2021/12/13 15:06:51;;;;;;;15.57;10.17;;;;;;;;;;5014151;28;20029;-69
2021/12/13 15:09:26;;;;;;;16.88;10.52;;;;;;;;;;5027953;28;20030;-68
2021/12/13 15:11:54;;;;;;;18.52;10.35;;;;;;;;;;5028600;28;20052;-67
2021/12/13 15:14:28;;;;;;;20.80;11.43;;;;;;;;;;5020821;28;20478;-67
2021/12/13 15:16:57;;;;;;;22.08;10.88;;;;;;;;;;5025520;28;20021;-67
2021/12/13 15:19:27;;;;;;;21.55;12.02;;;;;;;;;;5033716;28;20029;-67
2021/12/13 15:21:53;;;;;;;23.35;12.63;;;;;;;;;;5010066;28;20028;-66
2021/12/13 15:24:19;;;;;;;23.55;12.15;;;;;;;;;;5024402;28;20028;-67
2021/12/13 15:26:49;;;;;;;22.17;12.75;;;;;;;;;;5028051;28;20075;-67